Time;durP1;ratioP1;P1;durP2;ratioP2;P2;SDS_P1;SDS_P2;PMS_P1;PMS_P2;Temp;Humidity;BMP_temperature;BMP_pressure;BME280_temperature;BME280_humidity;BME280_pressure;Samples;Min_cycle;Max_cycle;Signal;HPM_P1;HPM_P2
2022/04/26 03:38:03;;;;;;;6.45;4.95;;;;;;;7.53;100.00;95372.97;5011397;28;25042;-73
2022/04/26 03:40:30;;;;;;;6.88;5.00;;;;;;;7.38;100.00;95374.69;5012348;28;24515;-73
2022/04/26 03:42:56;;;;;;;4.70;4.30;;;;;;;7.36;100.00;95378.25;5011385;28;24463;-73
2022/04/26 03:45:23;;;;;;;4.93;4.43;;;;;;;7.36;100.00;95378.25;5011838;28;25071;-73
2022/04/26 03:47:49;;;;;;;5.03;4.13;;;;;;;7.35;100.00;95380.00;5017447;28;24439;-73
2022/04/26 03:50:16;;;;;;;4.50;4.10;;;;;;;7.39;100.00;95378.91;5005988;28;24467;-73
2022/04/26 03:52:43;;;;;;;4.80;4.38;;;;;;;7.40;100.00;95377.16;5012917;28;24818;-73
2022/04/26 03:55:10;;;;;;;4.85;4.32;;;;;;;7.43;100.00;95377.81;5012068;28;24433;-74
2022/04/26 03:57:37;;;;;;;4.85;4.43;;;;;;;7.47;100.00;95378.47;5011466;28;24555;-73
2022/04/26 04:00:04;;;;;;;4.88;4.40;;;;;;;7.42;100.00;95383.88;5011236;28;24441;-73
2022/04/26 04:02:30;;;;;;;5.22;4.72;;;;;;;7.24;100.00;95383.16;5000103;28;24441;-73
2022/04/26 04:04:57;;;;;;;5.47;4.97;;;;;;;7.17;100.00;95388.75;5010910;28;24444;-73
2022/04/26 04:07:23;;;;;;;6.17;4.53;;;;;;;7.24;100.00;95387.50;5014432;28;24499;-73
2022/04/26 04:09:52;;;;;;;4.83;4.37;;;;;;;7.33;100.00;95392.13;5010659;28;24457;-73
2022/04/26 04:12:18;;;;;;;4.07;3.72;;;;;;;7.36;100.00;95394.53;5010929;28;20878;-73
2022/04/26 04:14:44;;;;;;;4.78;4.38;;;;;;;7.36;100.00;95404.84;5011175;28;20837;-73
2022/04/26 04:17:11;;;;;;;7.03;4.80;;;;;;;7.33;100.00;95399.84;5011326;28;20774;-72
2022/04/26 04:19:37;;;;;;;11.57;5.30;;;;;;;7.37;100.00;95400.50;5010223;28;24806;-72
2022/04/26 04:22:04;;;;;;;11.32;4.22;;;;;;;7.28;100.00;95402.69;5010327;28;24436;-73
2022/04/26 04:24:32;;;;;;;4.32;3.95;;;;;;;7.34;100.00;95398.94;5010549;28;20894;-72
2022/04/26 04:26:59;;;;;;;5.30;4.80;;;;;;;7.39;100.00;95402.09;5010680;28;24547;-73
2022/04/26 04:29:26;;;;;;;7.10;4.70;;;;;;;7.36;100.00;95406.59;5010319;28;24452;-73
2022/04/26 04:31:52;;;;;;;15.02;4.80;;;;;;;7.38;100.00;95412.47;5010681;28;24806;-74
2022/04/26 04:34:19;;;;;;;4.87;4.47;;;;;;;7.42;100.00;95401.09;5010480;28;24436;-73
2022/04/26 04:36:45;;;;;;;6.25;4.80;;;;;;;7.49;100.00;95390.34;5002337;28;24480;-73
2022/04/26 04:39:13;;;;;;;6.60;4.70;;;;;;;7.43;100.00;95384.72;5012800;28;24468;-73
2022/04/26 04:41:39;;;;;;;4.90;4.50;;;;;;;7.29;100.00;95400.94;5013206;28;24535;-73
2022/04/26 04:44:08;;;;;;;4.97;4.57;;;;;;;7.27;100.00;95398.47;5010325;28;24433;-73
2022/04/26 04:46:34;;;;;;;4.88;4.38;;;;;;;7.33;100.00;95401.59;5010391;28;20882;-73
2022/04/26 04:49:01;;;;;;;4.55;4.15;;;;;;;7.38;100.00;95405.59;5010110;28;24455;-73
2022/04/26 04:51:28;;;;;;;4.68;3.88;;;;;;;7.35;100.00;95408.34;5016758;28;24449;-73
2022/04/26 04:53:54;;;;;;;4.20;3.83;;;;;;;7.32;100.00;95405.94;5010377;28;24443;-73
2022/04/26 04:56:23;;;;;;;4.20;3.80;;;;;;;7.34;100.00;95408.41;5010301;28;24435;-73
2022/04/26 04:58:49;;;;;;;4.40;4.00;;;;;;;7.19;100.00;95415.22;5010299;28;20787;-73
2022/04/26 05:01:17;;;;;;;4.50;4.10;;;;;;;7.12;100.00;95408.75;5010070;28;24439;-73
2022/04/26 05:03:43;;;;;;;4.72;4.03;;;;;;;7.16;100.00;95412.84;5010225;28;20775;-72
2022/04/26 05:06:13;;;;;;;4.82;4.40;;;;;;;7.15;100.00;95400.88;5009607;28;24453;-73
2022/04/26 05:08:39;;;;;;;4.75;4.25;;;;;;;7.05;100.00;95399.72;5008779;28;24463;-74
2022/04/26 05:11:06;;;;;;;4.75;4.30;;;;;;;7.17;100.00;95404.19;5003048;28;24483;-73
2022/04/26 05:13:32;;;;;;;4.57;4.18;;;;;;;7.25;100.00;95408.00;5004840;28;24487;-73
2022/04/26 05:15:59;;;;;;;5.28;4.20;;;;;;;7.21;100.00;95419.41;4995876;28;24433;-73
2022/04/26 05:18:28;;;;;;;4.80;4.40;;;;;;;7.26;100.00;95419.13;4990634;28;24432;-73
2022/04/26 05:20:54;;;;;;;4.95;4.55;;;;;;;7.31;100.00;95422.31;5010427;28;21288;-73
2022/04/26 05:26:04;;;;;;;5.78;4.80;;;;;;;7.24;100.00;95444.16;5010312;28;20929;-73
2022/04/26 05:28:31;;;;;;;4.93;4.43;;;;;;;7.21;100.00;95439.19;5010523;28;24491;-73
2022/04/26 05:30:58;;;;;;;5.00;4.60;;;;;;;7.26;100.00;95427.69;5008546;28;24432;-71
2022/04/26 05:33:27;;;;;;;4.93;4.47;;;;;;;7.27;100.00;95420.81;5010792;28;24962;-74
2022/04/26 05:35:54;;;;;;;5.18;4.72;;;;;;;7.07;100.00;95429.63;5010083;28;20873;-74
2022/04/26 05:38:21;;;;;;;5.18;4.72;;;;;;;6.97;100.00;95425.88;5009755;28;24440;-74
2022/04/26 05:40:49;;;;;;;5.40;4.90;;;;;;;6.89;100.00;95416.00;5009714;28;24440;-73
2022/04/26 05:43:16;;;;;;;5.75;4.95;;;;;;;6.90;100.00;95424.56;5012041;28;24432;-73
2022/04/26 05:45:42;;;;;;;4.90;4.50;;;;;;;7.08;100.00;95423.53;5012917;28;24452;-73
2022/04/26 05:48:09;;;;;;;5.47;4.93;;;;;;;7.16;100.00;95430.88;5017602;28;24467;-73
2022/04/26 05:50:37;;;;;;;5.70;5.20;;;;;;;7.13;100.00;95436.19;5013055;28;24524;-72
2022/04/26 05:53:03;;;;;;;5.53;5.03;;;;;;;7.04;100.00;95445.22;5012995;28;24487;-73
2022/04/26 05:55:30;;;;;;;5.47;5.05;;;;;;;7.19;100.00;95441.00;5012989;28;24443;-72
2022/04/26 05:57:56;;;;;;;4.85;4.35;;;;;;;7.30;100.00;95441.22;5010474;28;24467;-73
2022/04/26 06:00:23;;;;;;;5.07;4.67;;;;;;;7.30;100.00;95446.38;5013370;28;24432;-72
2022/04/26 06:02:49;;;;;;;7.22;4.97;;;;;;;7.24;100.00;95445.00;5011339;28;25016;-73
2022/04/26 06:05:16;;;;;;;4.65;4.25;;;;;;;7.24;100.00;95450.13;5013194;28;20801;-73
2022/04/26 06:07:44;;;;;;;5.82;5.15;;;;;;;7.23;100.00;95455.34;5010363;28;24556;-73
2022/04/26 06:10:11;;;;;;;5.13;4.72;;;;;;;7.31;100.00;95444.66;5004215;28;24827;-73
2022/04/26 06:12:39;;;;;;;4.75;4.32;;;;;;;7.31;100.00;95442.91;5012014;28;24436;-73
2022/04/26 06:15:06;;;;;;;5.32;4.82;;;;;;;7.31;100.00;95440.34;5012454;28;24503;-71
2022/04/26 06:17:32;;;;;;;5.50;4.87;;;;;;;7.29;100.00;95447.31;5012733;28;25060;-72
2022/04/26 06:19:59;;;;;;;4.80;4.40;;;;;;;7.41;100.00;95451.78;5012312;28;24495;-72
2022/04/26 06:22:26;;;;;;;4.95;4.43;;;;;;;7.50;100.00;95456.44;5011358;28;24435;-72
2022/04/26 06:24:54;;;;;;;6.43;4.47;;;;;;;7.45;100.00;95461.03;5012419;28;24436;-73
2022/04/26 06:27:21;;;;;;;4.80;4.32;;;;;;;7.54;100.00;95457.09;5011498;28;24982;-73
2022/04/26 06:29:47;;;;;;;5.30;4.80;;;;;;;7.64;100.00;95454.81;5011216;28;24444;-72
2022/04/26 06:32:14;;;;;;;5.30;4.80;;;;;;;7.73;100.00;95444.81;5011577;28;24491;-72
2022/04/26 06:34:41;;;;;;;4.65;4.25;;;;;;;7.79;100.00;95451.41;5011603;28;24471;-72
2022/04/26 06:37:07;;;;;;;5.13;4.63;;;;;;;7.90;100.00;95454.19;5011623;28;24444;-73
2022/04/26 06:39:33;;;;;;;5.90;4.70;;;;;;;7.87;100.00;95456.94;5012455;28;20778;-73
2022/04/26 06:42:01;;;;;;;4.75;4.25;;;;;;;7.97;100.00;95464.97;5013726;28;24999;-73
2022/04/26 06:44:28;;;;;;;4.78;4.10;;;;;;;8.04;100.00;95468.84;5014226;28;20781;-72
2022/04/26 06:46:54;;;;;;;4.25;3.88;;;;;;;8.06;100.00;95471.34;5012260;28;24448;-73
2022/04/26 06:49:20;;;;;;;5.18;4.50;;;;;;;8.02;100.00;95469.88;5012051;28;24528;-74
2022/04/26 06:51:47;;;;;;;6.88;4.60;;;;;;;7.85;100.00;95473.41;5011457;28;24460;-73
2022/04/26 06:54:13;;;;;;;4.90;4.00;;;;;;;7.98;100.00;95474.38;5010704;28;24472;-73
2022/04/26 06:56:41;;;;;;;4.50;4.10;;;;;;;8.13;100.00;95476.06;5011264;28;24502;-74
2022/04/26 06:59:08;;;;;;;6.22;4.97;;;;;;;8.26;100.00;95468.44;5011584;28;24474;-76
2022/04/26 07:01:35;;;;;;;5.10;4.60;;;;;;;8.38;100.00;95465.19;5011503;28;20809;-74
2022/04/26 07:04:02;;;;;;;4.07;3.75;;;;;;;8.41;100.00;95469.31;5012174;28;24432;-73
2022/04/26 07:06:28;;;;;;;5.03;4.50;;;;;;;8.58;100.00;95460.59;5011953;28;21105;-74
2022/04/26 07:08:56;;;;;;;4.80;4.30;;;;;;;8.80;100.00;95449.81;5011964;28;24412;-73
2022/04/26 07:11:22;;;;;;;5.18;4.15;;;;;;;8.93;100.00;95446.34;5011926;28;24531;-72
2022/04/26 07:13:49;;;;;;;4.55;4.15;;;;;;;9.23;100.00;95449.72;5011710;28;24425;-74
2022/04/26 07:16:16;;;;;;;4.80;4.30;;;;;;;9.48;100.00;95444.66;5012315;28;24897;-74
2022/04/26 07:18:43;;;;;;;5.82;5.20;;;;;;;9.93;100.00;95442.63;5012018;28;20811;-73
2022/04/26 07:21:09;;;;;;;10.27;4.78;;;;;;;10.34;100.00;95446.84;5012465;28;24933;-73
2022/04/26 07:23:36;;;;;;;5.22;4.60;;;;;;;10.50;100.00;95441.50;5011587;28;24569;-73
2022/04/26 07:26:02;;;;;;;5.35;4.78;;;;;;;10.08;100.00;95438.19;5011544;28;24439;-73
2022/04/26 07:28:29;;;;;;;8.15;5.00;;;;;;;10.04;100.00;95434.16;5011907;28;24857;-72
2022/04/26 07:30:55;;;;;;;5.82;4.50;;;;;;;9.87;100.00;95443.88;5011802;28;24965;-71
2022/04/26 07:36:09;;;;;;;6.07;5.30;;;;;;;9.33;100.00;95448.22;5011885;28;20816;-72
2022/04/26 07:38:37;;;;;;;7.47;5.28;;;;;;;9.28;100.00;95452.88;5012173;28;20809;-69
2022/04/26 07:41:04;;;;;;;9.75;5.32;;;;;;;9.14;100.00;95458.88;5012148;28;20795;-72
2022/04/26 07:43:30;;;;;;;5.63;5.03;;;;;;;9.28;100.00;95461.44;5011260;28;24436;-71
2022/04/26 07:45:57;;;;;;;6.45;5.45;;;;;;;9.70;100.00;95464.81;5011563;28;20758;-72
2022/04/26 07:48:25;;;;;;;5.10;4.40;;;;;;;9.81;100.00;95470.13;5011265;28;24869;-74
2022/04/26 07:50:51;;;;;;;5.78;4.68;;;;;;;10.00;100.00;95479.28;5011283;28;20824;-71
2022/04/26 07:53:18;;;;;;;6.40;3.80;;;;;;;9.71;100.00;95481.97;5010751;28;21358;-72
2022/04/26 07:55:44;;;;;;;6.32;3.75;;;;;;;9.26;100.00;95480.53;5011709;28;20759;-72
2022/04/26 07:58:11;;;;;;;6.25;4.35;;;;;;;9.11;100.00;95490.06;5011581;28;20758;-72
2022/04/26 08:00:38;;;;;;;7.43;4.07;;;;;;;9.11;100.00;95495.25;5011073;28;20846;-72
2022/04/26 08:03:05;;;;;;;5.93;4.13;;;;;;;8.84;100.00;95508.91;4996894;28;24846;-72
2022/04/26 08:05:32;;;;;;;6.05;4.28;;;;;;;8.70;100.00;95519.22;4994676;28;20862;-72
2022/04/26 08:07:59;;;;;;;5.15;4.65;;;;;;;8.52;100.00;95522.88;5000986;28;20795;-72
2022/04/26 08:10:25;;;;;;;15.35;4.88;;;;;;;8.32;100.00;95522.28;4991640;28;24428;-72
2022/04/26 08:12:52;;;;;;;6.93;5.38;;;;;;;8.28;100.00;95533.69;4991366;28;20851;-71
2022/04/26 08:15:19;;;;;;;8.15;5.82;;;;;;;8.22;100.00;95542.59;4991466;28;24433;-72
2022/04/26 08:17:48;;;;;;;6.78;5.95;;;;;;;8.19;100.00;95534.22;4991384;28;20756;-72
2022/04/26 08:20:14;;;;;;;7.00;6.03;;;;;;;8.09;100.00;95536.50;4991488;28;24424;-71
2022/04/26 08:22:42;;;;;;;8.02;6.18;;;;;;;8.23;100.00;95539.13;4991231;28;24519;-71
2022/04/26 08:27:53;;;;;;;6.28;5.68;;;;;;;8.41;100.00;95555.31;4991144;28;25009;-71
2022/04/26 08:30:19;;;;;;;8.10;5.75;;;;;;;8.48;100.00;95553.22;4990956;28;24424;-72
2022/04/26 08:32:47;;;;;;;7.50;6.20;;;;;;;8.45;100.00;95556.81;4991393;28;24428;-71
2022/04/26 08:35:18;;;;;;;8.07;6.00;;;;;;;8.50;100.00;95548.81;4999095;28;24786;-72
2022/04/26 08:37:45;;;;;;;6.47;5.88;;;;;;;8.68;100.00;95554.66;5010737;28;24475;-72
2022/04/26 08:40:12;;;;;;;8.35;6.18;;;;;;;8.83;100.00;95560.66;5010558;28;24424;-72
2022/04/26 08:42:40;;;;;;;6.88;6.03;;;;;;;8.92;100.00;95560.94;5010368;28;24427;-72
2022/04/26 08:45:08;;;;;;;8.00;6.65;;;;;;;8.98;100.00;95564.91;5011059;28;20833;-71
2022/04/26 08:53:15;;;;;;;7.70;6.18;;;;;;;9.57;100.00;95569.97;4999701;28;20798;-71
2022/04/26 08:55:44;;;;;;;7.38;6.60;;;;;;;9.49;100.00;95567.81;5010476;28;21330;-72
2022/04/26 08:58:12;;;;;;;7.45;6.15;;;;;;;9.15;100.00;95576.81;5010118;28;20812;-71
2022/04/26 09:00:40;;;;;;;10.70;7.07;;;;;;;9.57;100.00;95575.94;5010572;28;20769;-71
2022/04/26 09:03:08;;;;;;;8.40;7.50;;;;;;;9.34;100.00;95579.94;5010806;28;20802;-71
2022/04/26 09:05:35;;;;;;;10.73;8.02;;;;;;;9.48;100.00;95578.25;5010146;28;20770;-71
2022/04/26 09:08:02;;;;;;;8.70;7.43;;;;;;;9.75;100.00;95576.53;5010283;28;20865;-71
2022/04/26 09:10:30;;;;;;;11.07;7.40;;;;;;;9.93;100.00;95574.56;5010647;28;20946;-71
2022/04/26 09:13:07;;;;;;;9.80;7.45;;;;;;;9.63;100.00;95572.97;5010460;28;20799;-71
2022/04/26 09:15:41;;;;;;;7.20;6.32;;;;;;;9.72;100.00;95574.16;5010749;28;20646;-71
2022/04/26 09:18:17;;;;;;;8.02;6.50;;;;;;;9.82;100.00;95577.81;5012909;28;20671;-71
2022/04/26 09:20:44;;;;;;;9.63;6.22;;;;;;;10.22;100.00;95572.69;5014365;28;21067;-71
2022/04/26 09:23:18;;;;;;;8.35;6.85;;;;;;;10.24;99.89;95585.56;5014100;28;24451;-71
2022/04/26 09:25:47;;;;;;;8.80;6.40;;;;;;;10.51;98.11;95586.38;5013905;28;24512;-71
2022/04/26 09:28:23;;;;;;;7.78;5.88;;;;;;;11.11;93.65;95587.59;5013552;28;25020;-71
2022/04/26 09:30:49;;;;;;;8.63;5.70;;;;;;;11.55;92.37;95581.94;5013806;28;24818;-71
2022/04/26 09:33:33;;;;;;;8.52;5.53;;;;;;;11.97;91.29;95573.84;5013841;28;24412;-71
2022/04/26 09:36:01;;;;;;;8.02;5.95;;;;;;;12.18;86.51;95571.50;5013731;28;25073;-71
2022/04/26 09:38:31;;;;;;;10.52;6.30;;;;;;;11.90;81.69;95568.25;5013507;28;24542;-71
2022/04/26 09:41:01;;;;;;;8.07;5.68;;;;;;;11.95;89.00;95573.16;5013715;28;24423;-71
2022/04/26 09:43:29;;;;;;;5.30;4.70;;;;;;;11.43;90.36;95569.00;5013780;28;24515;-71
2022/04/26 09:45:57;;;;;;;9.10;5.60;;;;;;;11.32;93.67;95578.34;5013935;28;24519;-71
2022/04/26 09:48:28;;;;;;;6.87;4.87;;;;;;;10.87;84.48;95583.13;5013740;28;24509;-71
2022/04/26 09:50:56;;;;;;;6.50;4.10;;;;;;;10.33;81.80;95580.63;5013684;28;24531;-71
2022/04/26 09:53:22;;;;;;;6.27;3.97;;;;;;;10.23;83.37;95581.28;5013622;28;24972;-75
2022/04/26 09:55:49;;;;;;;7.15;4.30;;;;;;;10.07;85.46;95576.28;5013738;28;21311;-71
2022/04/26 09:58:19;;;;;;;5.82;4.70;;;;;;;10.13;85.32;95578.47;5013713;28;24416;-71
2022/04/26 10:00:49;;;;;;;6.03;4.43;;;;;;;10.05;85.01;95578.97;5013875;28;20712;-71
2022/04/26 10:03:18;;;;;;;5.75;4.10;;;;;;;10.01;87.06;95574.94;5013333;28;24938;-70
2022/04/26 10:05:49;;;;;;;5.30;4.10;;;;;;;10.21;85.76;95586.59;5012998;28;24532;-70
2022/04/26 10:08:17;;;;;;;5.57;3.95;;;;;;;10.29;78.57;95579.19;5013197;28;20787;-71
2022/04/26 10:10:44;;;;;;;3.92;3.50;;;;;;;10.28;75.05;95587.06;5013546;28;20800;-71
2022/04/26 10:15:58;;;;;;;4.00;3.30;;;;;;;11.19;73.70;95582.69;5013372;28;20778;-71
2022/04/26 10:18:26;;;;;;;5.45;3.97;;;;;;;11.06;69.61;95585.31;5013064;28;24482;-71
2022/04/26 10:20:52;;;;;;;6.35;3.83;;;;;;;11.27;73.13;95577.84;5013067;28;24515;-71
2022/04/26 10:23:19;;;;;;;6.68;3.92;;;;;;;11.20;71.92;95580.94;5012741;28;24428;-71
2022/04/26 10:26:23;;;;;;;6.15;4.13;;;;;;;11.74;70.82;95578.88;5012917;28;24436;-71
2022/04/26 10:28:50;;;;;;;5.00;4.00;;;;;;;11.75;72.14;95572.75;5012432;28;25084;-71
2022/04/26 10:31:18;;;;;;;5.22;3.08;;;;;;;11.75;67.40;95569.31;5013071;28;24511;-71
2022/04/26 10:33:46;;;;;;;6.50;3.47;;;;;;;11.49;66.38;95581.53;5012791;28;24428;-71
2022/04/26 10:36:33;;;;;;;7.43;2.93;;;;;;;11.15;68.28;95581.25;5013027;28;24558;-71
2022/04/26 10:39:27;;;;;;;4.05;3.65;;;;;;;11.14;67.31;95585.59;5012630;28;24416;-71
2022/04/26 10:41:54;;;;;;;4.07;3.17;;;;;;;11.35;67.85;95588.50;5009030;28;24448;-71
2022/04/26 10:44:27;;;;;;;5.00;3.22;;;;;;;11.29;66.26;95585.50;5012775;28;24427;-71
2022/04/26 10:47:27;;;;;;;4.35;3.20;;;;;;;11.52;64.62;95581.31;5012419;28;24457;-71
2022/04/26 10:49:54;;;;;;;5.43;4.13;;;;;;;12.03;65.88;95573.44;5011977;28;24443;-71
2022/04/26 10:52:34;;;;;;;5.80;3.53;;;;;;;12.31;66.58;95578.28;5012481;28;24416;-71
2022/04/26 10:55:03;;;;;;;5.35;3.30;;;;;;;12.44;61.81;95582.59;5012474;28;24428;-71
2022/04/26 10:57:31;;;;;;;9.93;3.70;;;;;;;12.75;64.44;95581.97;5012412;28;25299;-71
2022/04/26 10:59:59;;;;;;;4.90;3.15;;;;;;;12.83;62.96;95589.22;5012046;28;24432;-71
2022/04/26 11:02:29;;;;;;;5.55;3.60;;;;;;;12.25;65.41;95589.13;5012010;28;24435;-71
2022/04/26 11:04:57;;;;;;;5.83;3.90;;;;;;;12.31;67.65;95590.41;5012382;28;24420;-72
2022/04/26 11:07:26;;;;;;;6.93;3.80;;;;;;;12.15;65.36;95590.72;5012236;28;24451;-71
2022/04/26 11:09:54;;;;;;;5.28;3.60;;;;;;;11.92;64.05;95592.34;5011871;28;25051;-71
2022/04/26 11:12:23;;;;;;;5.93;3.22;;;;;;;11.91;65.88;95595.06;5011932;28;24528;-71
2022/04/26 11:14:51;;;;;;;6.70;2.85;;;;;;;11.97;60.55;95605.81;5011744;28;24420;-71
2022/04/26 11:17:21;;;;;;;4.68;2.70;;;;;;;11.75;59.81;95603.06;5012233;28;24431;-72
2022/04/26 11:19:50;;;;;;;5.35;2.67;;;;;;;12.21;57.62;95598.06;5012148;28;24591;-71
2022/04/26 11:22:18;;;;;;;3.75;2.85;;;;;;;12.52;59.29;95601.84;5011803;28;24482;-72
2022/04/26 11:30:24;;;;;;;7.78;5.05;;;;;;;12.11;73.07;95618.66;5011507;28;24444;-71
2022/04/26 11:32:57;;;;;;;6.90;5.53;;;;;;;11.19;76.07;95623.34;5011598;28;25026;-72
2022/04/26 11:35:25;;;;;;;7.80;5.20;;;;;;;10.65;76.27;95635.53;5011523;28;24504;-71
2022/04/26 11:37:54;;;;;;;6.57;5.27;;;;;;;10.71;79.22;95623.91;5011346;28;24826;-71
2022/04/26 11:40:28;;;;;;;7.37;5.13;;;;;;;10.65;82.16;95632.09;5010730;28;25040;-71
2022/04/26 11:42:56;;;;;;;6.55;5.20;;;;;;;10.66;81.87;95629.41;5011573;28;21498;-71
2022/04/26 11:45:28;;;;;;;6.75;4.05;;;;;;;10.92;77.42;95633.81;5025770;28;24447;-71
2022/04/26 11:47:55;;;;;;;6.68;4.22;;;;;;;11.23;76.94;95625.63;5011214;28;24446;-71
2022/04/26 11:50:25;;;;;;;6.35;3.88;;;;;;;11.57;76.81;95637.13;5011190;28;20758;-72
2022/04/26 11:52:55;;;;;;;7.82;4.68;;;;;;;11.22;73.30;95636.09;5010970;28;20713;-71
2022/04/26 11:55:25;;;;;;;4.85;4.32;;;;;;;11.11;76.31;95644.59;5011113;28;24861;-71
2022/04/26 11:57:52;;;;;;;9.50;4.17;;;;;;;10.82;74.29;95642.16;5010872;28;24502;-71
2022/04/26 12:00:21;;;;;;;5.80;3.75;;;;;;;10.90;74.80;95650.28;5011209;28;24424;-71
2022/04/26 12:02:49;;;;;;;4.37;3.97;;;;;;;10.72;71.87;95650.66;5010330;28;24436;-71
2022/04/26 12:05:20;;;;;;;3.47;2.85;;;;;;;11.01;74.52;95662.53;5010967;28;20800;-71
2022/04/26 12:07:49;;;;;;;3.97;3.45;;;;;;;10.92;74.82;95667.50;5010891;28;24993;-71
2022/04/26 12:10:29;;;;;;;4.90;3.92;;;;;;;10.35;74.64;95663.41;5010956;28;21273;-71
2022/04/26 12:12:57;;;;;;;7.47;4.35;;;;;;;10.55;73.86;95654.34;5010355;28;20682;-71
2022/04/26 12:15:28;;;;;;;6.07;4.30;;;;;;;10.32;75.64;95679.13;5010673;28;21167;-71
2022/04/26 12:18:06;;;;;;;5.10;4.47;;;;;;;10.38;77.98;95682.16;5011106;28;20698;-71
2022/04/26 12:20:33;;;;;;;8.10;4.93;;;;;;;10.32;79.11;95672.19;5010788;28;20661;-71
2022/04/26 12:23:00;;;;;;;5.38;4.88;;;;;;;10.65;80.93;95694.25;5010639;28;20762;-70
2022/04/26 12:25:27;;;;;;;4.18;3.78;;;;;;;10.27;75.87;95687.19;5011012;28;21361;-71
2022/04/26 12:28:05;;;;;;;4.40;3.38;;;;;;;10.42;78.81;95700.91;5010703;28;20858;-71
2022/04/26 12:30:33;;;;;;;3.92;2.97;;;;;;;10.05;75.25;95702.31;5011189;28;20735;-71
2022/04/26 12:32:59;;;;;;;4.05;3.30;;;;;;;9.81;78.08;95705.50;5010246;28;21140;-71
2022/04/26 12:35:26;;;;;;;5.80;3.72;;;;;;;9.62;80.24;95702.38;5010441;28;24437;-71
2022/04/26 12:38:10;;;;;;;4.72;3.35;;;;;;;9.55;79.58;95701.88;5010414;28;24438;-71
2022/04/26 12:40:37;;;;;;;3.60;3.30;;;;;;;9.39;82.62;95698.56;5010735;28;20654;-71
2022/04/26 12:43:23;;;;;;;8.33;3.70;;;;;;;9.76;86.88;95709.28;5010805;28;20842;-71
2022/04/26 12:45:57;;;;;;;4.70;4.13;;;;;;;9.51;85.42;95712.50;5010542;28;20703;-71
2022/04/26 12:51:20;;;;;;;7.07;4.82;;;;;;;9.52;93.64;95721.94;5011753;28;20753;-71
2022/04/26 12:53:49;;;;;;;5.35;4.47;;;;;;;9.27;91.16;95720.81;5014274;28;20723;-71
2022/04/26 12:56:17;;;;;;;4.03;3.40;;;;;;;9.18;86.62;95729.06;5014715;28;20763;-71
2022/04/26 12:58:45;;;;;;;4.72;3.38;;;;;;;8.80;89.33;95731.28;5014508;28;21389;-71
2022/04/26 13:01:12;;;;;;;3.10;2.90;;;;;;;9.03;91.82;95730.78;5014463;28;20762;-71
2022/04/26 13:03:39;;;;;;;3.58;2.83;;;;;;;9.05;89.89;95725.50;5014638;28;20762;-71
2022/04/26 13:06:09;;;;;;;3.63;2.60;;;;;;;9.11;89.69;95732.94;5014089;28;24444;-71
2022/04/26 13:08:35;;;;;;;4.78;2.50;;;;;;;8.72;89.87;95736.88;5014426;28;24455;-71
2022/04/26 13:11:05;;;;;;;2.78;2.30;;;;;;;8.82;100.00;95732.81;5014459;28;24427;-71
2022/04/26 13:13:32;;;;;;;3.05;2.75;;;;;;;8.70;100.00;95726.59;5013954;28;24420;-72
2022/04/26 13:15:59;;;;;;;4.90;2.70;;;;;;;8.67;100.00;95724.19;5014559;28;24447;-71
2022/04/26 13:18:26;;;;;;;2.72;2.38;;;;;;;8.49;100.00;95722.63;5014516;28;24456;-71
2022/04/26 13:20:54;;;;;;;4.47;2.60;;;;;;;8.33;100.00;95730.34;5015456;28;24436;-72
2022/04/26 13:23:21;;;;;;;3.35;2.70;;;;;;;8.26;100.00;95729.03;5014154;28;25034;-72
2022/04/26 13:25:47;;;;;;;5.88;2.03;;;;;;;8.11;100.00;95724.69;5013950;28;24438;-71
2022/04/26 13:28:15;;;;;;;2.90;1.95;;;;;;;7.86;100.00;95728.59;5009691;28;24937;-71
2022/04/26 13:30:42;;;;;;;3.33;2.05;;;;;;;7.78;100.00;95724.72;5011790;28;24533;-72
2022/04/26 13:33:09;;;;;;;3.88;2.20;;;;;;;7.67;100.00;95730.44;5012964;28;24973;-72
2022/04/26 13:35:37;;;;;;;2.67;2.05;;;;;;;7.64;100.00;95717.72;5013545;28;24421;-71
2022/04/26 13:38:07;;;;;;;3.00;2.10;;;;;;;7.80;100.00;95718.59;5013075;28;24517;-72
2022/04/26 13:40:35;;;;;;;4.60;2.30;;;;;;;7.97;100.00;95734.03;5011292;28;24476;-71
2022/04/26 13:43:02;;;;;;;2.33;1.90;;;;;;;7.89;100.00;95723.25;5013196;28;24432;-71
2022/04/26 13:45:30;;;;;;;2.83;1.90;;;;;;;7.97;100.00;95736.59;5013327;28;24436;-72
2022/04/26 13:47:56;;;;;;;2.33;2.13;;;;;;;8.06;100.00;95729.28;5012877;28;24440;-71
2022/04/26 13:50:23;;;;;;;3.42;2.40;;;;;;;8.22;100.00;95740.44;5012885;28;25044;-72
2022/04/26 13:52:49;;;;;;;2.15;1.83;;;;;;;8.31;100.00;95734.78;5010364;28;25000;-71
2022/04/26 13:55:17;;;;;;;8.65;2.47;;;;;;;8.51;100.00;95725.16;5015420;28;24440;-72
2022/04/26 13:57:44;;;;;;;2.53;1.77;;;;;;;8.71;100.00;95732.59;5011259;28;24929;-72
2022/04/26 14:00:12;;;;;;;2.53;2.08;;;;;;;8.71;100.00;95737.75;5010041;28;24515;-71
2022/04/26 14:02:44;;;;;;;2.88;2.60;;;;;;;8.93;100.00;95732.22;5011569;28;24443;-72
2022/04/26 14:05:11;;;;;;;3.20;2.43;;;;;;;9.17;100.00;95730.81;5009578;28;24463;-71
2022/04/26 14:07:37;;;;;;;2.72;2.38;;;;;;;9.42;100.00;95735.41;5012144;28;24850;-71
2022/04/26 14:10:05;;;;;;;3.05;2.30;;;;;;;9.48;100.00;95733.38;5011924;28;24461;-72
2022/04/26 14:12:33;;;;;;;3.17;2.30;;;;;;;9.81;100.00;95735.72;5012219;28;20777;-72
2022/04/26 14:23:13;;;;;;;2.25;1.77;;;;;;;10.17;91.34;95738.63;5009124;28;20676;-72
2022/04/26 14:25:40;;;;;;;3.42;3.00;;;;;;;10.00;88.19;95735.41;5013586;28;24432;-71
2022/04/26 14:28:07;;;;;;;3.88;2.08;;;;;;;10.23;88.73;95734.81;5013662;28;20771;-71
2022/04/26 14:30:33;;;;;;;2.67;2.47;;;;;;;10.56;92.15;95736.28;5014871;28;21205;-74
2022/04/26 14:33:01;;;;;;;3.17;2.53;;;;;;;10.45;86.53;95731.75;5014826;28;20778;-71
2022/04/26 14:35:29;;;;;;;3.17;2.38;;;;;;;10.26;87.75;95742.44;5013389;28;24436;-71
2022/04/26 14:37:56;;;;;;;3.70;2.80;;;;;;;10.62;87.17;95733.31;5013322;28;20782;-71
2022/04/26 14:40:23;;;;;;;4.10;2.85;;;;;;;10.53;82.41;95739.91;5014193;28;21132;-73
2022/04/26 14:42:50;;;;;;;3.17;2.20;;;;;;;10.84;85.74;95737.94;5012966;28;24495;-71
2022/04/26 14:45:17;;;;;;;4.60;2.70;;;;;;;11.09;83.47;95732.00;5013402;28;24517;-71
2022/04/26 14:47:44;;;;;;;2.80;2.60;;;;;;;11.25;79.42;95742.19;5011110;28;24455;-71
2022/04/26 14:50:13;;;;;;;2.47;2.17;;;;;;;11.29;78.30;95733.28;5013015;28;25003;-71
2022/04/26 14:52:40;;;;;;;3.22;2.53;;;;;;;11.40;77.12;95736.00;5013024;28;24428;-71
2022/04/26 14:55:08;;;;;;;3.25;2.95;;;;;;;11.45;75.81;95736.50;5012861;28;24432;-71
2022/04/26 14:57:35;;;;;;;3.00;2.50;;;;;;;11.14;77.01;95730.75;5012558;28;24527;-71
2022/04/26 15:00:02;;;;;;;4.57;2.40;;;;;;;11.29;75.28;95738.47;5009749;28;24568;-71
2022/04/26 15:02:36;;;;;;;3.33;2.53;;;;;;;11.42;73.35;95733.28;5012940;28;21140;-71
2022/04/26 15:05:03;;;;;;;3.30;2.47;;;;;;;11.44;75.69;95737.44;5010191;28;24791;-71
2022/04/26 15:09:42;;;;;;;3.20;2.70;;;;;;;11.33;73.21;95745.94;5012341;28;24428;-71
2022/04/26 15:10:17;;;;;;;5.10;3.08;;;;;;;11.23;75.26;95736.28;5010888;28;24449;-72
2022/04/26 15:18:11;;;;;;;3.03;2.67;;;;;;;10.48;80.46;95743.69;5014015;28;24470;-72
2022/04/26 15:20:38;;;;;;;2.63;2.27;;;;;;;10.44;83.76;95744.81;5013268;28;24908;-72
2022/04/26 15:23:06;;;;;;;3.28;2.47;;;;;;;10.36;81.65;95748.72;5012585;28;24758;-71
2022/04/26 15:25:34;;;;;;;3.15;2.40;;;;;;;10.11;84.22;95749.34;5012800;28;20804;-71
2022/04/26 15:28:00;;;;;;;2.90;2.30;;;;;;;9.98;83.28;95751.03;5012472;28;24527;-72
2022/04/26 15:30:27;;;;;;;3.08;2.78;;;;;;;10.09;85.85;95758.16;5012579;28;24445;-71
2022/04/26 15:32:53;;;;;;;2.83;2.42;;;;;;;9.98;84.53;95757.97;5012533;28;24834;-71
2022/04/26 15:35:20;;;;;;;3.40;2.40;;;;;;;9.96;85.69;95758.06;5010496;28;24498;-72
2022/04/26 15:37:46;;;;;;;3.55;2.40;;;;;;;10.14;84.94;95769.88;5013047;28;24431;-72
2022/04/26 15:40:14;;;;;;;5.03;2.55;;;;;;;10.33;85.46;95771.38;5012068;28;24428;-72
2022/04/26 15:42:40;;;;;;;2.80;2.10;;;;;;;10.37;83.51;95773.66;5011654;28;21124;-72
2022/04/26 15:45:07;;;;;;;2.33;2.05;;;;;;;10.45;86.15;95780.13;5012444;28;24429;-72
2022/04/26 15:47:35;;;;;;;3.10;2.37;;;;;;;10.49;83.57;95777.25;5012301;28;20758;-72
2022/04/26 15:50:01;;;;;;;4.20;2.90;;;;;;;10.28;82.80;95778.59;5012163;28;20790;-72
2022/04/26 15:52:28;;;;;;;2.60;2.40;;;;;;;10.37;84.17;95780.59;5011482;28;20968;-72
2022/04/26 15:54:55;;;;;;;3.00;2.50;;;;;;;10.30;83.84;95779.31;5011891;28;24491;-72